Terminal Aerodrome Forecast
Issued by NWS

Current Version | Previous Version | Text Only | Print | Product List | Glossary On
Versions: 1 2 3 4 5 6 7 8 9 10 11 12 13 14 15 16 17 18 19
159
FTUS43 KDVN 090740 AAA
TAFBRL
TAF AMD
KBRL 090740Z 0908/1006 30010KT P6SM OVC025
     FM091500 30008KT P6SM BKN035
     FM092200 VRB03KT P6SM BKN070=

USA.gov is the U.S. government's official web portal to all federal, state and local government web resources and services.